Belize, Belize

11:53 AM CST on August 04, 2015 (GMT -0600)
Old Airport Road, Ladyville | | Change Station
CLOSE
Current Station
Personal Weather Station
Location: Belize,
Elevation: 26 ft
Nearby Weather Stations

Elev 26 ft 17.54 °N, 88.30 °W | Updated 8 seconds ago

Scattered Clouds
Scattered Clouds
86.1 °F
Feels Like 93 °F
N
20.3
Wind Variable Wind from NE
Gusts 31.0 mph

Today
High -- | Low -- °F
--% Chance of Precip.
Yesterday
High -- | Low -- °F
Precip. -- in
5:33 AM 6:25 PM
Waning Gibbous, 76% visible
Pressure 29.97 in
Visibility 6.2 miles
Clouds Scattered Clouds 2100 ft
Heat Index 93 °F
Dew Point 72 °F
Humidity 65%
Rainfall 0.00 in
Snow Depth Not available.
UV 14 out of 12
Pollen Not available.
Air Quality Not available.
Flu Activity Not available.
METAR MZBZ 041700Z 08010KT 9999 SCT021 32/25 A2997 Q1014 NOSIG

More Conditions Fewer Conditions

Pressure 29.97 in
Visibility 6.2 miles
Clouds Scattered Clouds 2100 ft
Heat Index 93 °F
Dew Point 72 °F
Humidity 65%
Rainfall 0.00 in
Snow Depth Not available.
UV 14 out of 12
Pollen Not available.
Air Quality Not available.
Flu Activity Not available.
METAR MZBZ 041700Z 08010KT 9999 SCT021 32/25 A2997 Q1014 NOSIG

More Conditions Fewer Conditions

10-Day Weather Forecast

×

Almanac

Astronomy

Aug. 04, 2015 Rise Set
Actual Time
Civil Twilight
Nautical Twilight
Astronomical Twilight
Moon
Length of Visible Light
Length of Day
Tomorrow will be .
, % of the Moon is Illuminated

Today's Extremes

Country Highs Country Lows

Community

WunderPhotos

Upload Photos

1,843,927 photos uploaded!

WunderBlogs® & News

Nearby

Air Quality

  Air Quality AQ Index Pollutant
Not available.

Snow Depth

Station Depth Elevation

Earthquake Activity

City Distance Mag. Time & Date
Minimum magnitude displayed is 2.5.

Coastal Water Temperatures

Place Temperature

Stations

Nearby Weather Stations

Station Location Temp. Windchill Dew Point Humidity Wind Precip. Elev Updated Type